Time;durP1;ratioP1;P1;durP2;ratioP2;P2;SDS_P1;SDS_P2;PMS_P1;PMS_P2;Temp;Humidity;BMP_temperature;BMP_pressure;BME280_temperature;BME280_humidity;BME280_pressure;Samples;Min_cycle;Max_cycle;Signal;HPM_P1;HPM_P2
2022/11/17 00:00:20;;;;;;;27.05;20.77;;;7.80;99.90;;;;;;4990176;28;20529;-76
2022/11/17 00:02:46;;;;;;;29.00;21.27;;;8.10;99.90;;;;;;4990233;28;20033;-75
2022/11/17 00:05:12;;;;;;;31.63;19.13;;;8.00;99.90;;;;;;5007918;28;20050;-76
2022/11/17 00:07:38;;;;;;;31.25;22.88;;;8.10;99.90;;;;;;4988875;28;20046;-76
2022/11/17 00:10:04;;;;;;;28.50;20.38;;;8.00;99.90;;;;;;4990177;28;20491;-75
2022/11/17 00:15:14;;;;;;;28.63;20.02;;;7.90;99.90;;;;;;4989772;28;20050;-77
2022/11/17 00:17:39;;;;;;;33.90;21.73;;;7.90;99.90;;;;;;4989439;28;20478;-75
2022/11/17 00:22:50;;;;;;;25.75;19.52;;;8.10;99.90;;;;;;4984934;28;20050;-77
2022/11/17 00:25:16;;;;;;;26.95;18.35;;;8.10;99.90;;;;;;4969963;28;20337;-76
2022/11/17 00:27:41;;;;;;;24.15;18.55;;;8.00;99.90;;;;;;4986924;28;20144;-76
2022/11/17 00:30:07;;;;;;;23.52;18.02;;;7.90;99.90;;;;;;4989774;28;20049;-76
2022/11/17 00:35:17;;;;;;;28.58;16.48;;;8.10;99.90;;;;;;4989614;28;20061;-76
2022/11/17 00:38:14;;;;;;;26.15;17.75;;;8.00;99.90;;;;;;5005592;28;20381;-76
2022/11/17 00:40:29;;;;;;;29.65;17.63;;;8.10;99.90;;;;;;4989447;28;20046;-76
2022/11/17 00:42:54;;;;;;;23.45;17.95;;;8.00;99.90;;;;;;5006290;28;20393;-75
2022/11/17 00:45:20;;;;;;;24.80;18.15;;;7.90;99.90;;;;;;5006983;28;20113;-78
2022/11/17 00:47:46;;;;;;;25.20;17.65;;;8.00;99.90;;;;;;4989000;28;20049;-76
2022/11/17 00:50:12;;;;;;;25.08;18.42;;;8.00;99.90;;;;;;4972817;28;20122;-76
2022/11/17 00:52:37;;;;;;;24.27;16.50;;;8.00;99.90;;;;;;4972007;28;20472;-75
2022/11/17 00:55:04;;;;;;;24.60;16.67;;;8.00;99.90;;;;;;5007021;28;20181;-76
2022/11/17 00:57:29;;;;;;;28.70;16.65;;;8.00;99.90;;;;;;5006951;28;20400;-75
2022/11/17 00:59:55;;;;;;;22.90;17.17;;;8.20;99.90;;;;;;5006109;28;20049;-76
2022/11/17 01:02:20;;;;;;;27.90;17.30;;;8.20;99.90;;;;;;4989264;28;20034;-76
2022/11/17 01:04:46;;;;;;;26.67;16.55;;;8.20;99.90;;;;;;5006779;28;20037;-76
2022/11/17 01:07:11;;;;;;;27.25;17.15;;;8.10;99.90;;;;;;5005339;28;20451;-75
2022/11/17 01:09:37;;;;;;;19.92;16.58;;;8.00;99.90;;;;;;4988487;28;20133;-78
2022/11/17 01:12:03;;;;;;;21.52;14.07;;;8.30;99.90;;;;;;5006333;28;20050;-75
2022/11/17 01:14:29;;;;;;;18.40;15.25;;;8.00;99.90;;;;;;4988451;28;20431;-75
2022/11/17 01:16:55;;;;;;;22.40;17.42;;;8.00;99.90;;;;;;5005988;28;20086;-75
2022/11/17 01:19:22;;;;;;;20.73;15.25;;;8.20;99.90;;;;;;4988391;28;20459;-76
2022/11/17 01:21:48;;;;;;;18.23;14.05;;;8.10;99.90;;;;;;4991805;28;20088;-77
2022/11/17 01:24:15;;;;;;;20.35;15.13;;;8.20;99.90;;;;;;4986646;28;20290;-76
2022/11/17 01:26:41;;;;;;;21.83;15.38;;;8.10;99.90;;;;;;4984780;28;20478;-76
2022/11/17 01:29:07;;;;;;;17.88;14.70;;;8.20;99.90;;;;;;4984804;28;20042;-75
2022/11/17 01:31:35;;;;;;;17.20;13.80;;;8.10;99.90;;;;;;4987101;28;20034;-76
2022/11/17 01:34:01;;;;;;;26.77;15.55;;;8.10;99.90;;;;;;4988552;28;20092;-76
2022/11/17 01:39:20;;;;;;;24.67;15.18;;;8.10;99.90;;;;;;5006001;28;20152;-76
2022/11/17 01:41:46;;;;;;;18.52;14.63;;;8.10;99.90;;;;;;5005200;28;20077;-76
2022/11/17 01:44:49;;;;;;;16.80;13.38;;;8.10;99.90;;;;;;4987955;28;20343;-75
2022/11/17 01:47:38;;;;;;;17.75;14.18;;;8.10;99.90;;;;;;4988000;28;20184;-77
2022/11/17 01:50:11;;;;;;;17.60;14.47;;;8.20;99.90;;;;;;5005003;28;20469;-76
2022/11/17 01:52:39;;;;;;;13.65;12.18;;;8.00;99.90;;;;;;4986705;28;20276;-76
2022/11/17 01:55:07;;;;;;;17.30;14.07;;;8.10;99.90;;;;;;5005951;28;20505;-75
2022/11/17 01:57:48;;;;;;;19.25;13.40;;;8.00;99.90;;;;;;4988376;28;20121;-77
2022/11/17 02:00:14;;;;;;;17.90;13.10;;;8.10;99.90;;;;;;5005621;28;20053;-75
2022/11/17 02:02:41;;;;;;;13.98;11.55;;;8.10;99.90;;;;;;5081680;22;20054;-73
2022/11/17 02:05:31;;;;;;;15.88;13.57;;;8.10;99.90;;;;;;4991799;28;20043;-74
2022/11/17 02:07:58;;;;;;;;;;;8.20;99.90;;;;;;4991689;28;20621;-74
2022/11/17 02:10:24;;;;;;;15.63;11.60;;;8.20;99.90;;;;;;4975610;28;19948;-75
2022/11/17 02:12:52;;;;;;;14.48;11.35;;;8.10;99.90;;;;;;4990902;28;20473;-75
2022/11/17 02:15:17;;;;;;;13.15;11.82;;;8.10;99.90;;;;;;4974163;28;20452;-76
2022/11/17 02:17:43;;;;;;;21.05;12.65;;;8.20;99.90;;;;;;4990721;28;20046;-76
2022/11/17 02:20:13;;;;;;;16.48;13.13;;;8.10;99.90;;;;;;4990868;28;20045;-75
2022/11/17 02:22:59;;;;;;;16.08;12.68;;;8.20;99.90;;;;;;4989692;28;20496;-75
2022/11/17 02:25:35;;;;;;;18.40;11.90;;;8.10;99.90;;;;;;4990593;28;20058;-76
2022/11/17 02:28:29;;;;;;;17.83;13.75;;;8.00;99.90;;;;;;4972946;28;20129;-76
2022/11/17 02:31:06;;;;;;;16.52;13.60;;;8.10;99.90;;;;;;4989491;28;20050;-76
2022/11/17 02:33:32;;;;;;;21.77;13.95;;;8.10;99.90;;;;;;4972188;28;20073;-76
2022/11/17 02:36:09;;;;;;;20.25;14.57;;;8.10;99.90;;;;;;4955062;28;20523;-76
2022/11/17 02:38:41;;;;;;;16.67;12.93;;;8.00;99.90;;;;;;4989654;28;20048;-76
2022/11/17 02:41:21;;;;;;;19.65;14.45;;;8.10;99.90;;;;;;4989390;28;20046;-73
2022/11/17 02:44:07;;;;;;;25.10;16.20;;;8.00;99.90;;;;;;4989209;28;20101;-74
2022/11/17 02:47:03;;;;;;;19.27;13.90;;;7.90;99.90;;;;;;4971508;28;20050;-75
2022/11/17 02:49:35;;;;;;;24.00;17.10;;;7.90;99.90;;;;;;4971522;28;20051;-75
2022/11/17 02:52:02;;;;;;;21.20;15.02;;;7.90;99.90;;;;;;4971237;28;20118;-75
2022/11/17 02:54:30;;;;;;;26.52;15.05;;;8.00;99.90;;;;;;4972088;28;20082;-75
2022/11/17 02:56:56;;;;;;;17.23;14.30;;;8.00;99.90;;;;;;4971416;28;20583;-74
2022/11/17 02:59:31;;;;;;;21.20;15.25;;;8.10;99.90;;;;;;4990403;28;20644;-74
2022/11/17 03:02:20;;;;;;;22.83;14.93;;;7.80;99.90;;;;;;4991566;28;20404;-75
2022/11/17 03:05:04;;;;;;;16.67;14.55;;;7.50;99.90;;;;;;5008351;28;20616;-76
2022/11/17 03:07:34;;;;;;;20.98;14.20;;;7.90;99.90;;;;;;5006723;28;20045;-75
2022/11/17 03:10:21;;;;;;;22.77;15.32;;;7.80;99.90;;;;;;4974569;28;20046;-75
2022/11/17 03:13:16;;;;;;;19.13;15.63;;;7.50;99.90;;;;;;4990701;28;20046;-76
2022/11/17 03:16:07;;;;;;;22.08;15.40;;;7.90;99.90;;;;;;5008322;28;20061;-75
2022/11/17 03:18:51;;;;;;;21.55;12.45;;;8.00;99.90;;;;;;4993189;28;20049;-76
2022/11/17 03:21:47;;;;;;;23.38;15.82;;;8.00;99.90;;;;;;4992674;28;20050;-76
2022/11/17 03:24:12;;;;;;;17.08;14.18;;;7.20;99.90;;;;;;4974864;28;20073;-74
2022/11/17 03:26:46;;;;;;;21.02;15.50;;;8.00;99.90;;;;;;4974817;28;20050;-76
2022/11/17 03:29:15;;;;;;;19.80;14.73;;;7.30;99.90;;;;;;4993032;28;20116;-75
2022/11/17 03:31:44;;;;;;;19.40;16.10;;;7.70;99.90;;;;;;4958685;28;20038;-75
2022/11/17 03:34:15;;;;;;;21.10;16.42;;;7.40;99.90;;;;;;4992291;28;20088;-76
2022/11/17 03:36:45;;;;;;;19.23;15.35;;;7.70;99.90;;;;;;4990734;28;20030;-76
2022/11/17 03:39:26;;;;;;;17.92;15.25;;;7.90;99.90;;;;;;4974575;28;20134;-76
2022/11/17 03:41:59;;;;;;;22.85;16.48;;;7.50;99.90;;;;;;4991966;28;20046;-76
2022/11/17 03:44:29;;;;;;;19.05;15.48;;;7.60;99.90;;;;;;4973791;28;20622;-77
2022/11/17 03:46:57;;;;;;;18.67;16.43;;;7.90;99.90;;;;;;4974063;28;20054;-75
2022/11/17 03:49:34;;;;;;;24.05;17.48;;;7.20;99.90;;;;;;4974440;28;20045;-75
2022/11/17 03:52:00;;;;;;;18.40;15.52;;;7.50;99.90;;;;;;4990832;28;20046;-76
2022/11/17 03:54:25;;;;;;;18.13;14.93;;;7.90;99.90;;;;;;4992449;28;20705;-75
2022/11/17 03:57:01;;;;;;;19.13;14.63;;;7.70;99.90;;;;;;4991926;28;20133;-76
2022/11/17 03:59:29;;;;;;;19.48;14.90;;;7.80;99.90;;;;;;4991939;28;20038;-76
2022/11/17 04:01:55;;;;;;;17.92;13.85;;;7.90;99.90;;;;;;4974419;28;20042;-77
2022/11/17 04:04:22;;;;;;;19.67;14.75;;;7.90;99.90;;;;;;4957915;28;20425;-75
2022/11/17 04:06:50;;;;;;;19.60;15.65;;;8.00;99.90;;;;;;4990747;28;20042;-75
2022/11/17 04:09:16;;;;;;;21.02;12.98;;;8.00;99.90;;;;;;4958479;28;20046;-76
2022/11/17 04:17:10;;;;;;;16.75;13.25;;;8.00;99.90;;;;;;4974196;28;20046;-76
2022/11/17 04:19:35;;;;;;;15.20;13.63;;;8.00;99.90;;;;;;4992140;28;20068;-77
2022/11/17 04:22:01;;;;;;;17.50;12.90;;;8.00;99.90;;;;;;4974248;28;20125;-75
2022/11/17 04:24:27;;;;;;;20.15;14.50;;;7.40;99.90;;;;;;4992120;28;20038;-76
2022/11/17 04:29:36;;;;;;;19.08;12.98;;;7.80;99.90;;;;;;4991046;28;20090;-77
2022/11/17 04:32:02;;;;;;;14.75;12.63;;;7.20;99.90;;;;;;4959189;28;20124;-76
2022/11/17 04:34:27;;;;;;;17.30;14.35;;;7.10;99.90;;;;;;4975074;28;20053;-76
2022/11/17 04:36:53;;;;;;;16.27;13.10;;;7.50;99.90;;;;;;4990985;28;20038;-75
2022/11/17 04:39:19;;;;;;;16.60;12.85;;;7.80;99.90;;;;;;4991597;28;20128;-76
2022/11/17 04:41:53;;;;;;;18.35;13.13;;;7.40;99.90;;;;;;4991532;28;20448;-76
2022/11/17 04:44:27;;;;;;;19.10;13.70;;;7.60;99.90;;;;;;4989788;28;20037;-76
2022/11/17 04:46:54;;;;;;;16.95;14.07;;;7.40;99.90;;;;;;4987081;28;20074;-75
2022/11/17 04:49:21;;;;;;;17.08;11.95;;;7.90;99.90;;;;;;4969720;28;20073;-76
2022/11/17 04:51:47;;;;;;;13.25;10.95;;;7.10;99.90;;;;;;4968742;28;20105;-75
2022/11/17 04:54:16;;;;;;;11.80;10.25;;;7.70;99.90;;;;;;4987005;28;20257;-76
2022/11/17 04:56:42;;;;;;;14.80;11.95;;;7.80;99.90;;;;;;4969773;28;20082;-76
2022/11/17 04:59:08;;;;;;;14.75;11.70;;;7.40;99.90;;;;;;4970569;28;20133;-76
2022/11/17 05:01:34;;;;;;;14.52;11.77;;;7.50;99.90;;;;;;4988035;28;20096;-75
2022/11/17 05:04:01;;;;;;;14.13;11.15;;;7.80;99.90;;;;;;4986892;28;20047;-76
2022/11/17 05:06:39;;;;;;;14.20;12.05;;;7.70;99.90;;;;;;4986468;28;20101;-75
2022/11/17 05:09:11;;;;;;;16.50;11.52;;;7.60;99.90;;;;;;4969857;28;20054;-76
2022/11/17 05:14:23;;;;;;;18.33;12.85;;;7.80;99.90;;;;;;4988004;28;20395;-76
2022/11/17 05:17:04;;;;;;;12.48;11.18;;;7.00;99.90;;;;;;4986795;28;20397;-76
2022/11/17 05:19:39;;;;;;;14.25;11.77;;;7.70;99.90;;;;;;4969420;28;20500;-76
2022/11/17 05:24:51;;;;;;;14.50;13.00;;;7.10;99.90;;;;;;4986531;28;20067;-75
2022/11/17 05:27:17;;;;;;;13.75;12.10;;;7.50;99.90;;;;;;4953606;28;20398;-77
2022/11/17 05:29:43;;;;;;;13.93;12.10;;;7.50;99.90;;;;;;4986192;28;20036;-77
2022/11/17 05:32:08;;;;;;;14.93;12.68;;;7.20;99.90;;;;;;4986839;28;20322;-75
2022/11/17 05:34:34;;;;;;;15.18;13.27;;;7.10;99.90;;;;;;4969386;28;20381;-76
2022/11/17 05:36:59;;;;;;;14.38;12.00;;;7.60;99.90;;;;;;4985610;28;20177;-76
2022/11/17 05:39:25;;;;;;;15.82;14.13;;;7.50;99.90;;;;;;4969360;28;20486;-77
2022/11/17 05:41:50;;;;;;;14.85;13.25;;;7.00;99.90;;;;;;4985250;28;20057;-76
2022/11/17 05:44:16;;;;;;;13.13;11.25;;;7.10;99.90;;;;;;4969101;28;20086;-76
2022/11/17 05:46:42;;;;;;;14.45;12.23;;;7.10;99.90;;;;;;4968982;28;20155;-75
2022/11/17 05:49:07;;;;;;;13.55;12.15;;;7.30;99.90;;;;;;4969338;28;20054;-75
2022/11/17 05:51:33;;;;;;;12.80;11.50;;;7.10;99.90;;;;;;4968399;28;20046;-76
2022/11/17 05:53:59;;;;;;;13.63;11.73;;;7.40;99.90;;;;;;4967911;28;20073;-75
2022/11/17 05:56:51;;;;;;;12.82;11.40;;;7.40;99.90;;;;;;4968545;28;20497;-75
2022/11/17 05:59:32;;;;;;;14.55;10.82;;;7.00;99.90;;;;;;4986152;28;20050;-75
2022/11/17 06:01:57;;;;;;;11.35;10.23;;;7.20;99.90;;;;;;4985742;28;20122;-76
2022/11/17 06:04:23;;;;;;;15.80;12.45;;;7.00;99.90;;;;;;4968262;28;20137;-76
2022/11/17 06:06:49;;;;;;;13.43;10.75;;;7.10;99.90;;;;;;4967628;28;20249;-75
2022/11/17 06:09:15;;;;;;;12.88;9.90;;;7.30;99.90;;;;;;4985807;28;20089;-75
2022/11/17 06:11:41;;;;;;;12.27;9.68;;;7.00;99.90;;;;;;4967983;28;20080;-76
2022/11/17 06:14:07;;;;;;;9.77;8.70;;;7.10;99.90;;;;;;4986026;28;20085;-76
2022/11/17 06:16:37;;;;;;;10.55;9.55;;;7.30;99.90;;;;;;4968751;28;20045;-76
2022/11/17 06:19:08;;;;;;;11.10;9.70;;;7.20;99.90;;;;;;4968672;28;20062;-75
2022/11/17 06:21:34;;;;;;;10.25;9.15;;;7.30;99.90;;;;;;4985850;28;20053;-75
2022/11/17 06:24:02;;;;;;;10.60;9.50;;;7.30;99.90;;;;;;4952059;28;20050;-75
2022/11/17 06:26:28;;;;;;;10.88;8.25;;;7.20;99.90;;;;;;4968698;28;20038;-75
2022/11/17 06:28:55;;;;;;;10.05;8.40;;;7.20;99.90;;;;;;4952289;28;20485;-76
2022/11/17 06:31:20;;;;;;;10.00;7.88;;;6.90;99.90;;;;;;4968403;28;20536;-75
2022/11/17 06:33:46;;;;;;;11.43;9.98;;;6.90;99.90;;;;;;4951971;28;20088;-75
2022/11/17 06:36:12;;;;;;;9.75;8.57;;;7.00;99.90;;;;;;4951305;28;20129;-75
2022/11/17 06:38:38;;;;;;;9.60;7.90;;;7.10;99.90;;;;;;4967804;28;20046;-75
2022/11/17 06:41:04;;;;;;;9.25;8.27;;;6.80;99.90;;;;;;4968854;28;20418;-76
2022/11/17 06:43:31;;;;;;;8.63;7.57;;;7.20;99.90;;;;;;4968517;28;20046;-76
2022/11/17 06:46:02;;;;;;;9.15;8.18;;;7.20;99.90;;;;;;4952203;28;20053;-76
2022/11/17 06:48:28;;;;;;;9.80;8.80;;;7.10;99.90;;;;;;4968472;28;20134;-75
2022/11/17 06:50:54;;;;;;;8.75;7.85;;;6.90;99.90;;;;;;4985556;28;20042;-75
2022/11/17 06:53:22;;;;;;;7.88;6.30;;;6.70;99.90;;;;;;4953329;28;20054;-77
2022/11/17 06:58:26;;;;;;;8.73;7.88;;;6.80;99.90;;;;;;4989729;28;20117;-74
2022/11/17 07:00:52;;;;;;;9.43;8.02;;;6.90;99.90;;;;;;4972435;28;20423;-74
2022/11/17 07:03:17;;;;;;;48.05;9.98;;;6.70;99.90;;;;;;4989391;28;20061;-75
2022/11/17 07:05:43;;;;;;;7.95;7.15;;;7.10;99.90;;;;;;4970228;28;20054;-76
2022/11/17 07:08:09;;;;;;;10.82;8.43;;;6.60;99.90;;;;;;4971913;28;20154;-75
2022/11/17 07:10:34;;;;;;;9.50;8.50;;;7.00;99.90;;;;;;4989867;28;20046;-75
2022/11/17 07:13:01;;;;;;;9.43;8.52;;;6.60;99.90;;;;;;4971396;28;20057;-75
2022/11/17 07:15:27;;;;;;;8.05;7.25;;;6.80;99.90;;;;;;4989305;28;20046;-75
2022/11/17 07:17:52;;;;;;;8.70;7.88;;;7.00;99.90;;;;;;4971227;28;20480;-74
2022/11/17 07:20:18;;;;;;;8.20;7.40;;;7.10;99.90;;;;;;4989394;28;20066;-75
2022/11/17 07:22:44;;;;;;;8.85;7.65;;;6.80;99.90;;;;;;4989224;28;20109;-75
2022/11/17 07:25:10;;;;;;;10.38;9.13;;;7.10;99.90;;;;;;4989923;28;20088;-75
2022/11/17 07:27:37;;;;;;;9.07;8.13;;;7.00;99.90;;;;;;4989356;28;20488;-76
2022/11/17 07:30:04;;;;;;;9.45;7.50;;;6.90;99.90;;;;;;4955594;28;20046;-76
2022/11/17 07:32:32;;;;;;;8.15;6.82;;;7.00;99.90;;;;;;4971301;28;20092;-76
2022/11/17 07:34:58;;;;;;;8.15;7.35;;;7.00;99.90;;;;;;4970671;28;20497;-77
2022/11/17 07:37:24;;;;;;;11.88;7.85;;;7.00;99.90;;;;;;4988599;28;20050;-76
2022/11/17 07:39:50;;;;;;;10.23;8.35;;;6.80;99.90;;;;;;4988796;28;20054;-76
2022/11/17 07:42:15;;;;;;;11.38;8.32;;;6.60;99.90;;;;;;4971108;28;20057;-75
2022/11/17 07:44:41;;;;;;;8.52;7.55;;;6.80;99.90;;;;;;4970752;28;20471;-75
2022/11/17 07:47:06;;;;;;;10.98;7.75;;;6.90;99.90;;;;;;4988399;28;20034;-75
2022/11/17 07:49:32;;;;;;;7.57;6.78;;;7.10;99.90;;;;;;4973276;28;20042;-75
2022/11/17 07:51:58;;;;;;;8.25;7.35;;;7.10;99.90;;;;;;4987432;28;20380;-75
2022/11/17 07:54:23;;;;;;;7.63;6.82;;;6.70;99.90;;;;;;4988594;28;20049;-75
2022/11/17 07:56:49;;;;;;;7.63;6.88;;;6.60;99.90;;;;;;4970898;28;20085;-75
2022/11/17 07:59:15;;;;;;;8.05;7.25;;;6.90;99.90;;;;;;4954741;28;20462;-75
2022/11/17 08:01:41;;;;;;;7.53;6.82;;;7.10;99.90;;;;;;4954555;28;20405;-75
2022/11/17 08:04:06;;;;;;;7.68;6.45;;;6.70;99.90;;;;;;4971041;28;20533;-76
2022/11/17 08:06:32;;;;;;;6.95;6.25;;;6.90;99.90;;;;;;4970427;28;20050;-75
2022/11/17 08:08:58;;;;;;;8.25;7.38;;;6.80;99.90;;;;;;4970640;28;20054;-75
2022/11/17 08:11:23;;;;;;;6.63;6.03;;;7.10;99.90;;;;;;4970638;28;20034;-75
2022/11/17 08:13:49;;;;;;;9.13;5.75;;;7.10;99.90;;;;;;4981838;28;20418;-74
2022/11/17 08:16:15;;;;;;;9.45;7.43;;;6.80;99.90;;;;;;4968693;28;20046;-75
2022/11/17 08:18:41;;;;;;;8.27;6.95;;;7.00;99.90;;;;;;4967206;28;20071;-75
2022/11/17 08:21:08;;;;;;;10.38;8.05;;;6.90;99.90;;;;;;4967497;28;20051;-75
2022/11/17 08:23:36;;;;;;;8.25;7.25;;;6.90;99.90;;;;;;4971405;28;20085;-75
2022/11/17 08:26:03;;;;;;;8.00;6.15;;;6.40;99.90;;;;;;4971114;28;20057;-75
2022/11/17 08:28:29;;;;;;;7.43;6.72;;;6.80;99.90;;;;;;4971276;28;20086;-74
2022/11/17 08:30:54;;;;;;;7.80;7.05;;;6.90;99.90;;;;;;4953838;28;20043;-74
2022/11/17 08:33:20;;;;;;;8.68;7.70;;;6.50;99.90;;;;;;4952221;28;20129;-75
2022/11/17 08:35:46;;;;;;;7.53;6.72;;;7.00;99.90;;;;;;4967067;28;20437;-75
2022/11/17 08:38:17;;;;;;;8.52;7.68;;;6.50;99.90;;;;;;4951269;28;20074;-75
2022/11/17 08:40:44;;;;;;;7.95;7.15;;;7.10;99.90;;;;;;4969767;28;20051;-75
2022/11/17 08:43:10;;;;;;;7.47;6.72;;;6.60;99.90;;;;;;4953759;28;20393;-75
2022/11/17 08:45:36;;;;;;;7.40;6.55;;;7.00;99.90;;;;;;4970114;28;20058;-77
2022/11/17 08:48:03;;;;;;;6.75;6.05;;;6.90;99.90;;;;;;4970893;28;20077;-75
2022/11/17 08:50:28;;;;;;;9.15;7.70;;;6.50;99.90;;;;;;4969891;28;20046;-75
2022/11/17 08:52:54;;;;;;;10.80;7.30;;;6.40;99.90;;;;;;4987050;28;20594;-76
2022/11/17 08:55:20;;;;;;;6.13;5.53;;;6.60;99.90;;;;;;4970550;28;20409;-75
2022/11/17 08:57:45;;;;;;;8.00;7.20;;;6.50;99.90;;;;;;4953796;28;20413;-75
2022/11/17 09:00:11;;;;;;;6.85;6.15;;;6.60;99.90;;;;;;4971328;28;20161;-75
2022/11/17 09:02:37;;;;;;;7.40;5.82;;;7.20;99.90;;;;;;4969218;28;20466;-76
2022/11/17 09:05:04;;;;;;;7.13;5.85;;;6.80;99.90;;;;;;4952938;28;20569;-75
2022/11/17 09:07:33;;;;;;;11.02;7.30;;;6.90;99.90;;;;;;4986776;28;20113;-74
2022/11/17 09:09:59;;;;;;;7.03;6.30;;;6.60;99.90;;;;;;4969172;28;20397;-75
2022/11/17 09:12:25;;;;;;;8.23;7.28;;;6.70;99.90;;;;;;4989906;28;20046;-74
2022/11/17 09:14:50;;;;;;;7.15;6.45;;;7.10;99.90;;;;;;4990646;28;20479;-75
2022/11/17 09:17:16;;;;;;;7.57;6.75;;;6.80;99.90;;;;;;5006487;28;20536;-76
2022/11/17 09:19:42;;;;;;;7.05;6.35;;;6.90;99.90;;;;;;4987997;28;20405;-76
2022/11/17 09:22:08;;;;;;;8.00;6.75;;;7.10;99.90;;;;;;4989032;28;20089;-76
2022/11/17 09:24:34;;;;;;;6.18;5.57;;;7.20;99.90;;;;;;4990128;28;20045;-76
2022/11/17 09:27:01;;;;;;;7.80;6.30;;;6.60;99.90;;;;;;4989389;28;20577;-76
2022/11/17 09:29:28;;;;;;;7.00;5.60;;;7.20;99.90;;;;;;5006619;28;20110;-76
2022/11/17 09:31:54;;;;;;;6.78;6.07;;;6.60;99.90;;;;;;4988694;28;20049;-76
2022/11/17 09:34:20;;;;;;;8.27;6.72;;;7.20;99.90;;;;;;5006355;28;20052;-75
2022/11/17 09:36:47;;;;;;;6.63;5.93;;;6.70;99.90;;;;;;4987886;28;20050;-76
2022/11/17 09:39:16;;;;;;;9.90;7.03;;;6.70;99.90;;;;;;4989605;28;20440;-76
2022/11/17 09:41:56;;;;;;;8.40;6.93;;;6.80;99.90;;;;;;5005796;28;20404;-76
2022/11/17 09:44:30;;;;;;;8.57;7.28;;;7.10;99.90;;;;;;4971685;28;20496;-77
2022/11/17 09:47:02;;;;;;;7.10;6.40;;;6.60;99.90;;;;;;4969039;28;20101;-76
2022/11/17 09:49:49;;;;;;;8.88;7.03;;;6.90;99.90;;;;;;4970009;28;20046;-76
2022/11/17 09:52:24;;;;;;;6.43;5.45;;;7.20;99.90;;;;;;4969287;28;20046;-76
2022/11/17 09:54:58;;;;;;;7.57;6.63;;;7.30;99.90;;;;;;4969244;28;20057;-75
2022/11/17 09:57:47;;;;;;;9.90;7.20;;;6.80;99.90;;;;;;4953013;28;20043;-76
2022/11/17 10:00:18;;;;;;;7.00;5.90;;;6.70;99.90;;;;;;4953285;28;20185;-77
2022/11/17 10:02:44;;;;;;;8.25;6.93;;;6.60;99.90;;;;;;4986251;28;20112;-76
2022/11/17 10:05:31;;;;;;;7.10;6.38;;;6.80;99.90;;;;;;4967983;28;20065;-76
2022/11/17 10:08:11;;;;;;;8.18;5.10;;;7.00;99.90;;;;;;4968570;28;20050;-76
2022/11/17 10:10:44;;;;;;;5.90;5.28;;;6.70;99.90;;;;;;4985852;28;20050;-76
2022/11/17 10:13:34;;;;;;;5.80;5.20;;;7.30;99.90;;;;;;4968908;28;20046;-76
2022/11/17 10:16:06;;;;;;;9.48;5.95;;;6.80;99.90;;;;;;4999944;28;20054;-77
2022/11/17 10:18:34;;;;;;;4.78;4.28;;;7.00;99.90;;;;;;4989401;28;20361;-76
2022/11/17 10:21:00;;;;;;;5.28;4.60;;;7.30;99.90;;;;;;4986683;28;20056;-75
2022/11/17 10:23:35;;;;;;;5.28;4.70;;;6.90;99.90;;;;;;5009114;28;20046;-76
2022/11/17 10:26:07;;;;;;;5.25;4.75;;;6.80;99.90;;;;;;5005956;28;20038;-75
2022/11/17 10:28:33;;;;;;;5.35;4.43;;;6.80;99.90;;;;;;5005519;28;20045;-76
2022/11/17 10:31:17;;;;;;;5.60;5.05;;;7.30;99.90;;;;;;5007886;28;20033;-76
2022/11/17 10:33:49;;;;;;;7.68;5.43;;;7.30;99.90;;;;;;5004999;28;20053;-76
2022/11/17 10:36:29;;;;;;;5.32;4.82;;;6.80;99.90;;;;;;5004906;28;20034;-76
2022/11/17 10:38:57;;;;;;;5.07;4.57;;;6.70;99.90;;;;;;4988969;28;20599;-76
2022/11/17 10:41:31;;;;;;;5.72;4.88;;;7.30;99.90;;;;;;4987616;28;20049;-74
2022/11/17 10:44:10;;;;;;;5.90;5.22;;;7.30;99.90;;;;;;4991694;28;20054;-76
2022/11/17 10:46:53;;;;;;;5.43;3.85;;;7.30;99.90;;;;;;4967934;28;20050;-76
2022/11/17 10:49:28;;;;;;;4.55;4.15;;;7.30;99.90;;;;;;4985482;28;20540;-76
2022/11/17 10:52:10;;;;;;;5.03;4.53;;;7.00;99.90;;;;;;4951451;28;20050;-75
2022/11/17 10:54:37;;;;;;;5.60;4.35;;;6.70;99.90;;;;;;4968283;28;20467;-76
2022/11/17 10:57:17;;;;;;;6.30;5.35;;;6.80;99.90;;;;;;4986904;28;20413;-76
2022/11/17 10:59:58;;;;;;;5.53;4.70;;;7.30;99.90;;;;;;4952304;28;20061;-75
2022/11/17 11:02:34;;;;;;;6.70;5.57;;;7.30;99.90;;;;;;4967779;28;20079;-76
2022/11/17 11:05:05;;;;;;;4.55;4.15;;;7.40;99.90;;;;;;4984206;28;20466;-75
2022/11/17 11:07:31;;;;;;;6.85;4.65;;;7.40;99.90;;;;;;4952110;28;20043;-76
2022/11/17 11:10:17;;;;;;;4.95;4.47;;;7.10;99.90;;;;;;4967615;28;20116;-76
2022/11/17 11:13:16;;;;;;;5.57;4.97;;;7.50;99.90;;;;;;4984726;28;20387;-76
2022/11/17 11:15:44;;;;;;;6.55;5.13;;;7.50;99.90;;;;;;4967072;28;20043;-76
2022/11/17 11:18:14;;;;;;;8.82;4.82;;;7.60;99.90;;;;;;4951666;28;20052;-77
2022/11/17 11:20:46;;;;;;;6.13;4.63;;;7.50;99.90;;;;;;4966573;28;20497;-77
2022/11/17 11:23:29;;;;;;;5.43;4.88;;;7.00;99.90;;;;;;4985243;28;20129;-75
2022/11/17 11:26:20;;;;;;;5.20;4.55;;;7.20;99.90;;;;;;4951751;28;20393;-76
2022/11/17 11:29:15;;;;;;;5.35;4.72;;;7.20;99.90;;;;;;4951404;28;20054;-77
2022/11/17 11:31:48;;;;;;;4.40;4.00;;;7.50;99.90;;;;;;4959277;28;20117;-76
2022/11/17 11:34:39;;;;;;;5.22;4.07;;;7.80;99.90;;;;;;4984899;28;20065;-76
2022/11/17 11:37:11;;;;;;;5.28;4.78;;;7.10;99.90;;;;;;4985765;28;20086;-76
2022/11/17 11:40:13;;;;;;;5.88;4.85;;;7.80;99.90;;;;;;4953067;28;20072;-77
2022/11/17 11:42:58;;;;;;;4.93;3.97;;;7.10;99.90;;;;;;4989197;28;20046;-76
2022/11/17 11:45:27;;;;;;;3.80;3.22;;;7.70;99.90;;;;;;4971217;28;20468;-75
2022/11/17 11:48:24;;;;;;;5.07;4.05;;;7.40;99.90;;;;;;4954775;28;20042;-75
2022/11/17 11:50:57;;;;;;;5.47;3.75;;;7.20;99.90;;;;;;4953658;28;20046;-76
2022/11/17 11:53:31;;;;;;;4.15;3.17;;;7.30;99.90;;;;;;4971055;28;20158;-75
2022/11/17 11:56:16;;;;;;;4.88;3.90;;;7.60;99.90;;;;;;4955048;28;20125;-75
2022/11/17 11:58:47;;;;;;;3.78;3.40;;;7.80;99.90;;;;;;4970456;28;20054;-76
2022/11/17 12:01:16;;;;;;;3.92;3.55;;;7.30;99.90;;;;;;4970808;28;20176;-76
2022/11/17 12:04:05;;;;;;;3.38;2.58;;;7.80;99.90;;;;;;4966853;28;20067;-75
2022/11/17 12:06:54;;;;;;;4.43;3.78;;;7.10;99.90;;;;;;4968421;28;20138;-76
2022/11/17 12:09:47;;;;;;;3.50;3.20;;;7.80;99.90;;;;;;4968924;28;20047;-76
2022/11/17 12:12:16;;;;;;;4.72;3.55;;;7.60;99.90;;;;;;4951306;28;20055;-75
2022/11/17 12:15:17;;;;;;;5.33;4.00;;;7.80;99.90;;;;;;4968319;28;20248;-76
2022/11/17 12:18:21;;;;;;;4.55;3.15;;;7.20;99.90;;;;;;4968287;28;20130;-75
2022/11/17 12:21:20;;;;;;;3.58;2.75;;;7.10;99.90;;;;;;4961732;28;20054;-76
2022/11/17 12:24:07;;;;;;;3.83;3.08;;;7.50;99.90;;;;;;4967071;28;20438;-76
2022/11/17 12:26:33;;;;;;;2.97;2.67;;;7.90;99.90;;;;;;4967818;28;20050;-76
2022/11/17 12:29:18;;;;;;;3.58;3.25;;;7.40;99.90;;;;;;4968324;28;20043;-76
2022/11/17 12:31:45;;;;;;;4.00;3.60;;;7.70;99.90;;;;;;4950529;28;20587;-76
2022/11/17 12:34:23;;;;;;;3.67;2.83;;;7.50;99.90;;;;;;4967701;28;20086;-77
2022/11/17 12:37:13;;;;;;;4.35;3.08;;;7.90;99.90;;;;;;4950581;28;20133;-76
2022/11/17 12:39:54;;;;;;;3.50;3.08;;;7.70;99.90;;;;;;4966518;28;20047;-76
2022/11/17 12:42:20;;;;;;;5.95;3.30;;;7.70;99.90;;;;;;4968337;28;20330;-76
2022/11/17 12:44:54;;;;;;;4.15;3.40;;;7.70;99.90;;;;;;4966643;28;20225;-75
2022/11/17 12:47:34;;;;;;;4.28;3.53;;;7.50;99.90;;;;;;4967002;28;20043;-76
2022/11/17 12:50:19;;;;;;;;;;;7.80;99.90;;;;;;4967876;28;20057;-75
2022/11/17 12:52:56;;;;;;;5.28;4.28;;;7.60;99.90;;;;;;4967595;28;19929;-76
2022/11/17 12:55:31;;;;;;;5.10;3.47;;;7.30;99.90;;;;;;4950558;28;20043;-76
2022/11/17 12:58:24;;;;;;;7.22;4.15;;;7.30;99.90;;;;;;4967495;28;20086;-75
2022/11/17 13:00:55;;;;;;;5.82;4.30;;;7.40;99.90;;;;;;4947935;28;20058;-77
2022/11/17 13:03:39;;;;;;;5.75;4.15;;;8.20;99.90;;;;;;4965982;28;20059;-76
2022/11/17 13:06:14;;;;;;;4.70;4.30;;;7.50;99.90;;;;;;4965561;28;20069;-76
2022/11/17 13:08:40;;;;;;;5.25;4.75;;;8.40;99.90;;;;;;4965756;28;20035;-77
2022/11/17 13:11:16;;;;;;;3.90;3.47;;;7.70;99.90;;;;;;4966058;28;20043;-77
2022/11/17 13:13:42;;;;;;;5.18;4.10;;;8.30;99.90;;;;;;4965908;28;20055;-77
2022/11/17 13:16:18;;;;;;;5.75;4.20;;;7.80;99.90;;;;;;4966145;28;20126;-77
2022/11/17 13:18:44;;;;;;;5.60;4.43;;;8.00;99.90;;;;;;4965665;28;20078;-76
2022/11/17 13:21:25;;;;;;;9.50;4.38;;;8.30;99.90;;;;;;4965124;28;20057;-75
2022/11/17 13:23:51;;;;;;;4.93;4.13;;;8.70;99.90;;;;;;4966816;28;20085;-76
2022/11/17 13:26:36;;;;;;;7.18;5.00;;;8.70;99.90;;;;;;4965588;28;20094;-76
2022/11/17 13:29:06;;;;;;;6.55;4.55;;;8.00;99.90;;;;;;4966125;28;20049;-76
2022/11/17 13:31:32;;;;;;;7.43;4.68;;;8.30;99.90;;;;;;4965915;28;20043;-77
2022/11/17 13:34:06;;;;;;;6.28;5.22;;;7.90;99.90;;;;;;4966324;28;20053;-76
2022/11/17 13:36:33;;;;;;;7.13;4.53;;;8.00;99.90;;;;;;4949674;28;20043;-77